sensor_id;sensor_type;location;lat;lon;timestamp;P1;durP1;ratioP1;P2;durP2;ratioP2
21675;SDS011;10999;51.332;9.458;2023-05-07T00:01:29;20.05;;;10.25;;
21675;SDS011;10999;51.332;9.458;2023-05-07T00:03:55;19.05;;;11.07;;
21675;SDS011;10999;51.332;9.458;2023-05-07T00:06:22;23.13;;;11.52;;
21675;SDS011;10999;51.332;9.458;2023-05-07T00:08:50;17.70;;;9.48;;
21675;SDS011;10999;51.332;9.458;2023-05-07T00:11:16;17.23;;;9.90;;
21675;SDS011;10999;51.332;9.458;2023-05-07T00:13:43;20.65;;;11.70;;
21675;SDS011;10999;51.332;9.458;2023-05-07T00:16:10;20.02;;;11.25;;
21675;SDS011;10999;51.332;9.458;2023-05-07T00:18:36;20.35;;;11.27;;
21675;SDS011;10999;51.332;9.458;2023-05-07T00:21:03;18.77;;;10.98;;
21675;SDS011;10999;51.332;9.458;2023-05-07T00:23:30;19.23;;;11.00;;
21675;SDS011;10999;51.332;9.458;2023-05-07T00:25:57;21.10;;;11.65;;
21675;SDS011;10999;51.332;9.458;2023-05-07T00:28:24;20.92;;;11.55;;
21675;SDS011;10999;51.332;9.458;2023-05-07T00:30:51;20.38;;;11.63;;
21675;SDS011;10999;51.332;9.458;2023-05-07T00:33:18;18.08;;;11.52;;
21675;SDS011;10999;51.332;9.458;2023-05-07T00:35:46;19.67;;;10.57;;
21675;SDS011;10999;51.332;9.458;2023-05-07T00:38:13;19.13;;;11.00;;
21675;SDS011;10999;51.332;9.458;2023-05-07T00:40:40;19.55;;;10.43;;
21675;SDS011;10999;51.332;9.458;2023-05-07T00:43:07;18.17;;;10.02;;
21675;SDS011;10999;51.332;9.458;2023-05-07T00:45:33;16.63;;;10.50;;
21675;SDS011;10999;51.332;9.458;2023-05-07T00:48:00;19.00;;;10.77;;
21675;SDS011;10999;51.332;9.458;2023-05-07T00:50:29;20.23;;;12.15;;
21675;SDS011;10999;51.332;9.458;2023-05-07T00:52:56;20.48;;;11.63;;
21675;SDS011;10999;51.332;9.458;2023-05-07T00:55:23;21.58;;;12.80;;
21675;SDS011;10999;51.332;9.458;2023-05-07T00:57:50;20.08;;;10.43;;
21675;SDS011;10999;51.332;9.458;2023-05-07T01:00:17;21.95;;;11.38;;
21675;SDS011;10999;51.332;9.458;2023-05-07T01:02:44;20.45;;;12.65;;
21675;SDS011;10999;51.332;9.458;2023-05-07T01:05:14;25.73;;;13.30;;
21675;SDS011;10999;51.332;9.458;2023-05-07T01:07:44;22.17;;;12.15;;
21675;SDS011;10999;51.332;9.458;2023-05-07T01:10:11;22.67;;;12.02;;
21675;SDS011;10999;51.332;9.458;2023-05-07T01:12:39;20.23;;;11.93;;
21675;SDS011;10999;51.332;9.458;2023-05-07T01:15:08;21.20;;;11.48;;
21675;SDS011;10999;51.332;9.458;2023-05-07T01:17:36;21.05;;;11.77;;
21675;SDS011;10999;51.332;9.458;2023-05-07T01:20:07;23.35;;;12.25;;
21675;SDS011;10999;51.332;9.458;2023-05-07T01:22:37;18.95;;;11.20;;
21675;SDS011;10999;51.332;9.458;2023-05-07T01:25:04;19.95;;;11.32;;
21675;SDS011;10999;51.332;9.458;2023-05-07T01:27:33;21.92;;;10.88;;
21675;SDS011;10999;51.332;9.458;2023-05-07T01:30:01;22.02;;;11.30;;
21675;SDS011;10999;51.332;9.458;2023-05-07T01:32:29;22.70;;;12.00;;
21675;SDS011;10999;51.332;9.458;2023-05-07T01:35:19;25.90;;;13.50;;
21675;SDS011;10999;51.332;9.458;2023-05-07T01:37:48;20.92;;;11.50;;
21675;SDS011;10999;51.332;9.458;2023-05-07T01:40:16;20.95;;;12.13;;
21675;SDS011;10999;51.332;9.458;2023-05-07T01:42:43;24.73;;;13.80;;
21675;SDS011;10999;51.332;9.458;2023-05-07T01:45:10;24.45;;;13.30;;
21675;SDS011;10999;51.332;9.458;2023-05-07T01:47:37;23.98;;;14.15;;
21675;SDS011;10999;51.332;9.458;2023-05-07T01:50:05;26.60;;;13.38;;
21675;SDS011;10999;51.332;9.458;2023-05-07T01:52:38;26.20;;;14.70;;
21675;SDS011;10999;51.332;9.458;2023-05-07T01:55:05;27.23;;;14.85;;
21675;SDS011;10999;51.332;9.458;2023-05-07T01:57:33;26.17;;;14.15;;
21675;SDS011;10999;51.332;9.458;2023-05-07T01:59:59;25.20;;;14.45;;
21675;SDS011;10999;51.332;9.458;2023-05-07T02:02:26;26.02;;;13.10;;
21675;SDS011;10999;51.332;9.458;2023-05-07T02:04:53;24.80;;;12.85;;
21675;SDS011;10999;51.332;9.458;2023-05-07T02:07:19;25.63;;;12.27;;
21675;SDS011;10999;51.332;9.458;2023-05-07T02:09:46;28.13;;;14.57;;
21675;SDS011;10999;51.332;9.458;2023-05-07T02:12:13;22.60;;;12.73;;
21675;SDS011;10999;51.332;9.458;2023-05-07T02:14:39;23.98;;;12.55;;
21675;SDS011;10999;51.332;9.458;2023-05-07T02:17:06;25.42;;;12.98;;
21675;SDS011;10999;51.332;9.458;2023-05-07T02:19:33;26.48;;;13.30;;
21675;SDS011;10999;51.332;9.458;2023-05-07T02:22:00;25.40;;;13.35;;
21675;SDS011;10999;51.332;9.458;2023-05-07T02:24:27;22.38;;;12.75;;
21675;SDS011;10999;51.332;9.458;2023-05-07T02:26:53;24.60;;;13.55;;
21675;SDS011;10999;51.332;9.458;2023-05-07T02:29:20;27.83;;;12.57;;
21675;SDS011;10999;51.332;9.458;2023-05-07T02:31:47;26.65;;;12.85;;
21675;SDS011;10999;51.332;9.458;2023-05-07T02:34:17;25.05;;;13.20;;
21675;SDS011;10999;51.332;9.458;2023-05-07T02:36:43;25.67;;;12.98;;
21675;SDS011;10999;51.332;9.458;2023-05-07T02:39:10;26.02;;;13.30;;
21675;SDS011;10999;51.332;9.458;2023-05-07T02:41:37;27.17;;;14.35;;
21675;SDS011;10999;51.332;9.458;2023-05-07T02:44:04;28.40;;;12.75;;
21675;SDS011;10999;51.332;9.458;2023-05-07T02:46:30;27.77;;;14.73;;
21675;SDS011;10999;51.332;9.458;2023-05-07T02:48:57;26.15;;;13.82;;
21675;SDS011;10999;51.332;9.458;2023-05-07T02:51:25;28.83;;;15.52;;
21675;SDS011;10999;51.332;9.458;2023-05-07T02:53:53;30.38;;;14.98;;
21675;SDS011;10999;51.332;9.458;2023-05-07T02:56:19;25.75;;;13.40;;
21675;SDS011;10999;51.332;9.458;2023-05-07T02:58:47;30.02;;;14.65;;
21675;SDS011;10999;51.332;9.458;2023-05-07T03:01:13;25.80;;;13.25;;
21675;SDS011;10999;51.332;9.458;2023-05-07T03:03:40;26.95;;;14.45;;
21675;SDS011;10999;51.332;9.458;2023-05-07T03:06:07;29.08;;;14.40;;
21675;SDS011;10999;51.332;9.458;2023-05-07T03:08:34;27.88;;;14.25;;
21675;SDS011;10999;51.332;9.458;2023-05-07T03:11:00;30.02;;;14.60;;
21675;SDS011;10999;51.332;9.458;2023-05-07T03:13:27;28.48;;;14.95;;
21675;SDS011;10999;51.332;9.458;2023-05-07T03:15:54;28.35;;;14.65;;
21675;SDS011;10999;51.332;9.458;2023-05-07T03:18:21;26.48;;;14.68;;
21675;SDS011;10999;51.332;9.458;2023-05-07T03:20:48;29.67;;;14.55;;
21675;SDS011;10999;51.332;9.458;2023-05-07T03:23:14;30.00;;;14.85;;
21675;SDS011;10999;51.332;9.458;2023-05-07T03:25:41;29.38;;;15.15;;
21675;SDS011;10999;51.332;9.458;2023-05-07T03:28:08;29.80;;;14.73;;
21675;SDS011;10999;51.332;9.458;2023-05-07T03:30:34;26.08;;;13.98;;
21675;SDS011;10999;51.332;9.458;2023-05-07T03:33:01;27.02;;;15.18;;
21675;SDS011;10999;51.332;9.458;2023-05-07T03:35:28;31.27;;;14.05;;
21675;SDS011;10999;51.332;9.458;2023-05-07T03:37:55;27.65;;;15.00;;
21675;SDS011;10999;51.332;9.458;2023-05-07T03:40:21;29.35;;;15.95;;
21675;SDS011;10999;51.332;9.458;2023-05-07T03:42:48;30.80;;;14.43;;
21675;SDS011;10999;51.332;9.458;2023-05-07T03:45:15;34.20;;;16.27;;
21675;SDS011;10999;51.332;9.458;2023-05-07T03:47:41;34.00;;;15.77;;
21675;SDS011;10999;51.332;9.458;2023-05-07T03:50:08;30.42;;;16.50;;
21675;SDS011;10999;51.332;9.458;2023-05-07T03:52:36;30.40;;;16.00;;
21675;SDS011;10999;51.332;9.458;2023-05-07T03:55:03;29.60;;;14.93;;
21675;SDS011;10999;51.332;9.458;2023-05-07T03:57:31;31.90;;;16.08;;
21675;SDS011;10999;51.332;9.458;2023-05-07T03:59:58;33.38;;;16.35;;
21675;SDS011;10999;51.332;9.458;2023-05-07T04:02:25;33.40;;;16.25;;
21675;SDS011;10999;51.332;9.458;2023-05-07T04:04:52;29.80;;;15.52;;
21675;SDS011;10999;51.332;9.458;2023-05-07T04:07:18;27.63;;;15.20;;
21675;SDS011;10999;51.332;9.458;2023-05-07T04:09:45;32.50;;;15.85;;
21675;SDS011;10999;51.332;9.458;2023-05-07T04:12:12;27.98;;;14.88;;
21675;SDS011;10999;51.332;9.458;2023-05-07T04:14:38;29.35;;;14.38;;
21675;SDS011;10999;51.332;9.458;2023-05-07T04:17:05;31.45;;;15.23;;
21675;SDS011;10999;51.332;9.458;2023-05-07T04:19:33;30.55;;;15.63;;
21675;SDS011;10999;51.332;9.458;2023-05-07T04:22:00;33.30;;;14.80;;
21675;SDS011;10999;51.332;9.458;2023-05-07T04:24:26;32.00;;;15.23;;
21675;SDS011;10999;51.332;9.458;2023-05-07T04:26:53;34.13;;;14.95;;
21675;SDS011;10999;51.332;9.458;2023-05-07T04:29:21;27.65;;;14.68;;
21675;SDS011;10999;51.332;9.458;2023-05-07T04:31:47;30.83;;;16.08;;
21675;SDS011;10999;51.332;9.458;2023-05-07T04:34:14;29.15;;;15.23;;
21675;SDS011;10999;51.332;9.458;2023-05-07T04:36:41;28.67;;;15.32;;
21675;SDS011;10999;51.332;9.458;2023-05-07T04:39:08;29.08;;;14.80;;
21675;SDS011;10999;51.332;9.458;2023-05-07T04:41:36;32.58;;;15.00;;
21675;SDS011;10999;51.332;9.458;2023-05-07T04:44:03;30.00;;;15.23;;
21675;SDS011;10999;51.332;9.458;2023-05-07T04:46:30;30.02;;;14.50;;
21675;SDS011;10999;51.332;9.458;2023-05-07T04:48:57;32.70;;;14.38;;
21675;SDS011;10999;51.332;9.458;2023-05-07T04:51:24;29.35;;;14.95;;
21675;SDS011;10999;51.332;9.458;2023-05-07T04:53:50;28.98;;;14.77;;
21675;SDS011;10999;51.332;9.458;2023-05-07T04:56:17;29.45;;;14.68;;
21675;SDS011;10999;51.332;9.458;2023-05-07T04:58:43;26.30;;;13.57;;
21675;SDS011;10999;51.332;9.458;2023-05-07T05:01:10;28.23;;;13.38;;
21675;SDS011;10999;51.332;9.458;2023-05-07T05:03:37;25.88;;;12.93;;
21675;SDS011;10999;51.332;9.458;2023-05-07T05:06:05;24.50;;;12.88;;
21675;SDS011;10999;51.332;9.458;2023-05-07T05:08:32;24.90;;;13.05;;
21675;SDS011;10999;51.332;9.458;2023-05-07T05:11:00;27.65;;;13.05;;
21675;SDS011;10999;51.332;9.458;2023-05-07T05:13:28;24.65;;;11.68;;
21675;SDS011;10999;51.332;9.458;2023-05-07T05:15:54;24.02;;;11.13;;
21675;SDS011;10999;51.332;9.458;2023-05-07T05:18:22;20.70;;;10.38;;
21675;SDS011;10999;51.332;9.458;2023-05-07T05:20:48;24.73;;;11.18;;
21675;SDS011;10999;51.332;9.458;2023-05-07T05:23:17;20.40;;;9.90;;
21675;SDS011;10999;51.332;9.458;2023-05-07T05:25:43;20.70;;;9.75;;
21675;SDS011;10999;51.332;9.458;2023-05-07T05:28:11;19.63;;;9.55;;
21675;SDS011;10999;51.332;9.458;2023-05-07T05:30:38;17.63;;;8.82;;
21675;SDS011;10999;51.332;9.458;2023-05-07T05:33:05;19.35;;;9.23;;
21675;SDS011;10999;51.332;9.458;2023-05-07T05:35:32;16.58;;;8.57;;
21675;SDS011;10999;51.332;9.458;2023-05-07T05:37:59;20.65;;;9.40;;
21675;SDS011;10999;51.332;9.458;2023-05-07T05:40:25;18.73;;;9.00;;
21675;SDS011;10999;51.332;9.458;2023-05-07T05:42:52;16.88;;;8.02;;
21675;SDS011;10999;51.332;9.458;2023-05-07T05:45:19;19.42;;;8.85;;
21675;SDS011;10999;51.332;9.458;2023-05-07T05:47:46;16.13;;;8.98;;
21675;SDS011;10999;51.332;9.458;2023-05-07T05:50:15;17.98;;;8.57;;
21675;SDS011;10999;51.332;9.458;2023-05-07T05:52:42;16.60;;;8.00;;
21675;SDS011;10999;51.332;9.458;2023-05-07T05:55:09;18.40;;;8.25;;
21675;SDS011;10999;51.332;9.458;2023-05-07T05:57:36;17.25;;;8.27;;
21675;SDS011;10999;51.332;9.458;2023-05-07T06:00:03;15.35;;;7.88;;
21675;SDS011;10999;51.332;9.458;2023-05-07T06:02:30;17.45;;;8.45;;
21675;SDS011;10999;51.332;9.458;2023-05-07T06:04:57;17.02;;;8.63;;
21675;SDS011;10999;51.332;9.458;2023-05-07T06:07:24;17.75;;;8.77;;
21675;SDS011;10999;51.332;9.458;2023-05-07T06:09:51;16.90;;;8.13;;
21675;SDS011;10999;51.332;9.458;2023-05-07T06:12:17;16.85;;;8.07;;
21675;SDS011;10999;51.332;9.458;2023-05-07T06:14:44;14.63;;;7.50;;
21675;SDS011;10999;51.332;9.458;2023-05-07T06:17:11;16.83;;;8.00;;
21675;SDS011;10999;51.332;9.458;2023-05-07T06:19:37;14.90;;;8.20;;
21675;SDS011;10999;51.332;9.458;2023-05-07T06:22:04;17.40;;;7.80;;
21675;SDS011;10999;51.332;9.458;2023-05-07T06:24:31;15.40;;;7.57;;
21675;SDS011;10999;51.332;9.458;2023-05-07T06:26:58;16.77;;;8.18;;
21675;SDS011;10999;51.332;9.458;2023-05-07T06:29:25;17.10;;;8.45;;
21675;SDS011;10999;51.332;9.458;2023-05-07T06:31:52;15.57;;;7.47;;
21675;SDS011;10999;51.332;9.458;2023-05-07T06:34:19;15.25;;;7.53;;
21675;SDS011;10999;51.332;9.458;2023-05-07T06:36:46;16.55;;;7.38;;
21675;SDS011;10999;51.332;9.458;2023-05-07T06:39:13;15.40;;;7.18;;
21675;SDS011;10999;51.332;9.458;2023-05-07T06:41:40;15.23;;;7.60;;
21675;SDS011;10999;51.332;9.458;2023-05-07T06:44:06;13.35;;;6.97;;
21675;SDS011;10999;51.332;9.458;2023-05-07T06:46:35;14.40;;;7.90;;
21675;SDS011;10999;51.332;9.458;2023-05-07T06:49:04;14.20;;;6.82;;
21675;SDS011;10999;51.332;9.458;2023-05-07T06:51:31;15.95;;;7.85;;
21675;SDS011;10999;51.332;9.458;2023-05-07T06:53:58;15.48;;;6.78;;
21675;SDS011;10999;51.332;9.458;2023-05-07T06:56:24;15.02;;;6.50;;
21675;SDS011;10999;51.332;9.458;2023-05-07T06:58:51;14.05;;;7.60;;
21675;SDS011;10999;51.332;9.458;2023-05-07T07:01:18;16.17;;;7.82;;
21675;SDS011;10999;51.332;9.458;2023-05-07T07:03:45;16.00;;;8.73;;
21675;SDS011;10999;51.332;9.458;2023-05-07T07:06:11;15.73;;;8.18;;
21675;SDS011;10999;51.332;9.458;2023-05-07T07:08:38;14.73;;;6.93;;
21675;SDS011;10999;51.332;9.458;2023-05-07T07:11:05;15.25;;;8.07;;
21675;SDS011;10999;51.332;9.458;2023-05-07T07:13:32;15.32;;;7.40;;
21675;SDS011;10999;51.332;9.458;2023-05-07T07:15:59;16.00;;;8.02;;
21675;SDS011;10999;51.332;9.458;2023-05-07T07:18:26;15.13;;;7.07;;
21675;SDS011;10999;51.332;9.458;2023-05-07T07:20:53;14.38;;;7.78;;
21675;SDS011;10999;51.332;9.458;2023-05-07T07:23:20;15.40;;;7.68;;
21675;SDS011;10999;51.332;9.458;2023-05-07T07:25:47;15.93;;;6.93;;
21675;SDS011;10999;51.332;9.458;2023-05-07T07:28:14;15.35;;;8.32;;
21675;SDS011;10999;51.332;9.458;2023-05-07T07:30:41;17.30;;;8.55;;
21675;SDS011;10999;51.332;9.458;2023-05-07T07:33:07;15.40;;;7.50;;
21675;SDS011;10999;51.332;9.458;2023-05-07T07:35:34;15.40;;;7.28;;
21675;SDS011;10999;51.332;9.458;2023-05-07T07:38:01;13.82;;;6.95;;
21675;SDS011;10999;51.332;9.458;2023-05-07T07:40:28;13.77;;;7.97;;
21675;SDS011;10999;51.332;9.458;2023-05-07T07:42:56;16.40;;;7.85;;
21675;SDS011;10999;51.332;9.458;2023-05-07T07:45:23;14.00;;;6.65;;
21675;SDS011;10999;51.332;9.458;2023-05-07T07:47:49;13.98;;;6.72;;
21675;SDS011;10999;51.332;9.458;2023-05-07T07:50:16;12.35;;;5.43;;
21675;SDS011;10999;51.332;9.458;2023-05-07T07:53:01;15.38;;;7.07;;
21675;SDS011;10999;51.332;9.458;2023-05-07T07:55:28;15.75;;;7.15;;
21675;SDS011;10999;51.332;9.458;2023-05-07T07:57:54;16.95;;;6.55;;
21675;SDS011;10999;51.332;9.458;2023-05-07T08:00:21;13.07;;;6.38;;
21675;SDS011;10999;51.332;9.458;2023-05-07T08:02:48;12.82;;;5.90;;
21675;SDS011;10999;51.332;9.458;2023-05-07T08:05:16;12.85;;;6.22;;
21675;SDS011;10999;51.332;9.458;2023-05-07T08:07:42;15.57;;;8.52;;
21675;SDS011;10999;51.332;9.458;2023-05-07T08:10:09;13.25;;;6.25;;
21675;SDS011;10999;51.332;9.458;2023-05-07T08:12:36;13.60;;;6.40;;
21675;SDS011;10999;51.332;9.458;2023-05-07T08:15:03;13.30;;;6.32;;
21675;SDS011;10999;51.332;9.458;2023-05-07T08:17:31;11.77;;;6.00;;
21675;SDS011;10999;51.332;9.458;2023-05-07T08:19:57;10.60;;;5.63;;
21675;SDS011;10999;51.332;9.458;2023-05-07T08:22:24;12.27;;;6.47;;
21675;SDS011;10999;51.332;9.458;2023-05-07T08:24:51;13.32;;;6.85;;
21675;SDS011;10999;51.332;9.458;2023-05-07T08:27:19;13.63;;;6.65;;
21675;SDS011;10999;51.332;9.458;2023-05-07T08:29:46;13.13;;;6.13;;
21675;SDS011;10999;51.332;9.458;2023-05-07T08:32:14;12.65;;;5.80;;
21675;SDS011;10999;51.332;9.458;2023-05-07T08:34:41;13.63;;;6.90;;
21675;SDS011;10999;51.332;9.458;2023-05-07T08:37:07;11.57;;;5.55;;
21675;SDS011;10999;51.332;9.458;2023-05-07T08:39:34;12.60;;;6.35;;
21675;SDS011;10999;51.332;9.458;2023-05-07T08:42:01;13.15;;;7.07;;
21675;SDS011;10999;51.332;9.458;2023-05-07T08:44:33;13.20;;;6.82;;
21675;SDS011;10999;51.332;9.458;2023-05-07T08:47:01;11.25;;;5.68;;
21675;SDS011;10999;51.332;9.458;2023-05-07T08:49:28;12.73;;;5.63;;
21675;SDS011;10999;51.332;9.458;2023-05-07T08:51:55;10.63;;;5.70;;
21675;SDS011;10999;51.332;9.458;2023-05-07T08:54:22;10.52;;;5.50;;
21675;SDS011;10999;51.332;9.458;2023-05-07T08:56:49;9.80;;;4.95;;
21675;SDS011;10999;51.332;9.458;2023-05-07T08:59:17;11.18;;;5.35;;
21675;SDS011;10999;51.332;9.458;2023-05-07T09:01:44;9.93;;;5.32;;
21675;SDS011;10999;51.332;9.458;2023-05-07T09:04:11;9.98;;;4.60;;
21675;SDS011;10999;51.332;9.458;2023-05-07T09:06:39;8.20;;;4.55;;
21675;SDS011;10999;51.332;9.458;2023-05-07T09:09:07;10.00;;;4.72;;
21675;SDS011;10999;51.332;9.458;2023-05-07T09:11:34;9.70;;;4.90;;
21675;SDS011;10999;51.332;9.458;2023-05-07T09:14:01;9.48;;;4.72;;
21675;SDS011;10999;51.332;9.458;2023-05-07T09:16:29;9.50;;;4.20;;
21675;SDS011;10999;51.332;9.458;2023-05-07T09:18:57;8.35;;;3.80;;
21675;SDS011;10999;51.332;9.458;2023-05-07T09:21:26;9.63;;;4.18;;
21675;SDS011;10999;51.332;9.458;2023-05-07T09:23:54;8.45;;;3.90;;
21675;SDS011;10999;51.332;9.458;2023-05-07T09:26:22;8.80;;;4.35;;
21675;SDS011;10999;51.332;9.458;2023-05-07T09:28:50;8.40;;;3.97;;
21675;SDS011;10999;51.332;9.458;2023-05-07T09:31:17;9.23;;;4.43;;
21675;SDS011;10999;51.332;9.458;2023-05-07T09:33:46;9.18;;;4.18;;
21675;SDS011;10999;51.332;9.458;2023-05-07T09:36:13;8.50;;;3.30;;
21675;SDS011;10999;51.332;9.458;2023-05-07T09:38:40;7.53;;;3.45;;
21675;SDS011;10999;51.332;9.458;2023-05-07T09:43:37;6.85;;;3.17;;
21675;SDS011;10999;51.332;9.458;2023-05-07T09:46:10;7.35;;;2.88;;
21675;SDS011;10999;51.332;9.458;2023-05-07T09:48:39;9.05;;;3.25;;
21675;SDS011;10999;51.332;9.458;2023-05-07T09:51:20;6.38;;;3.22;;
21675;SDS011;10999;51.332;9.458;2023-05-07T09:53:53;7.15;;;3.15;;
21675;SDS011;10999;51.332;9.458;2023-05-07T09:56:20;6.40;;;2.90;;
21675;SDS011;10999;51.332;9.458;2023-05-07T09:58:47;6.68;;;2.90;;
21675;SDS011;10999;51.332;9.458;2023-05-07T10:01:15;6.35;;;2.80;;
21675;SDS011;10999;51.332;9.458;2023-05-07T10:03:45;6.95;;;2.60;;
21675;SDS011;10999;51.332;9.458;2023-05-07T10:06:12;7.05;;;3.00;;
21675;SDS011;10999;51.332;9.458;2023-05-07T10:08:40;6.45;;;3.28;;
21675;SDS011;10999;51.332;9.458;2023-05-07T10:11:08;6.85;;;3.33;;
21675;SDS011;10999;51.332;9.458;2023-05-07T10:13:36;6.35;;;2.67;;
21675;SDS011;10999;51.332;9.458;2023-05-07T10:16:04;7.80;;;2.80;;
21675;SDS011;10999;51.332;9.458;2023-05-07T10:18:31;6.03;;;2.53;;
21675;SDS011;10999;51.332;9.458;2023-05-07T10:21:04;5.18;;;2.17;;
21675;SDS011;10999;51.332;9.458;2023-05-07T10:23:34;5.32;;;2.42;;
21675;SDS011;10999;51.332;9.458;2023-05-07T10:26:02;5.35;;;2.22;;
21675;SDS011;10999;51.332;9.458;2023-05-07T10:28:32;5.50;;;2.58;;
21675;SDS011;10999;51.332;9.458;2023-05-07T10:33:53;6.45;;;2.78;;
21675;SDS011;10999;51.332;9.458;2023-05-07T10:36:22;5.82;;;2.35;;
21675;SDS011;10999;51.332;9.458;2023-05-07T10:38:49;6.18;;;2.60;;
21675;SDS011;10999;51.332;9.458;2023-05-07T10:41:16;5.70;;;2.45;;
21675;SDS011;10999;51.332;9.458;2023-05-07T10:43:44;6.50;;;2.53;;
21675;SDS011;10999;51.332;9.458;2023-05-07T10:46:18;7.35;;;2.50;;
21675;SDS011;10999;51.332;9.458;2023-05-07T10:51:32;6.38;;;2.53;;
21675;SDS011;10999;51.332;9.458;2023-05-07T10:56:38;5.55;;;2.35;;
21675;SDS011;10999;51.332;9.458;2023-05-07T11:01:54;6.50;;;3.40;;
21675;SDS011;10999;51.332;9.458;2023-05-07T11:04:24;6.20;;;2.80;;
21675;SDS011;10999;51.332;9.458;2023-05-07T11:15:04;5.15;;;2.50;;
21675;SDS011;10999;51.332;9.458;2023-05-07T11:26:03;7.25;;;3.10;;
21675;SDS011;10999;51.332;9.458;2023-05-07T11:28:31;6.65;;;2.80;;
21675;SDS011;10999;51.332;9.458;2023-05-07T11:31:03;6.70;;;3.47;;
21675;SDS011;10999;51.332;9.458;2023-05-07T11:33:31;6.07;;;2.63;;
21675;SDS011;10999;51.332;9.458;2023-05-07T11:35:59;8.48;;;3.10;;
21675;SDS011;10999;51.332;9.458;2023-05-07T11:38:26;7.30;;;3.08;;
21675;SDS011;10999;51.332;9.458;2023-05-07T11:40:55;7.25;;;3.33;;
21675;SDS011;10999;51.332;9.458;2023-05-07T11:43:22;7.20;;;3.50;;
21675;SDS011;10999;51.332;9.458;2023-05-07T11:45:49;6.85;;;3.35;;
21675;SDS011;10999;51.332;9.458;2023-05-07T11:48:16;7.60;;;3.50;;
21675;SDS011;10999;51.332;9.458;2023-05-07T11:50:53;8.15;;;3.42;;
21675;SDS011;10999;51.332;9.458;2023-05-07T11:53:34;8.32;;;3.58;;
21675;SDS011;10999;51.332;9.458;2023-05-07T11:56:10;8.27;;;4.30;;
21675;SDS011;10999;51.332;9.458;2023-05-07T11:58:38;8.75;;;3.60;;
21675;SDS011;10999;51.332;9.458;2023-05-07T12:01:07;7.35;;;3.75;;
21675;SDS011;10999;51.332;9.458;2023-05-07T12:06:13;7.32;;;3.60;;
21675;SDS011;10999;51.332;9.458;2023-05-07T12:08:41;8.20;;;3.75;;
21675;SDS011;10999;51.332;9.458;2023-05-07T12:11:13;8.40;;;3.80;;
21675;SDS011;10999;51.332;9.458;2023-05-07T12:13:48;7.93;;;3.75;;
21675;SDS011;10999;51.332;9.458;2023-05-07T12:16:15;7.78;;;3.78;;
21675;SDS011;10999;51.332;9.458;2023-05-07T12:18:42;7.68;;;3.60;;
21675;SDS011;10999;51.332;9.458;2023-05-07T12:21:10;8.60;;;4.65;;
21675;SDS011;10999;51.332;9.458;2023-05-07T12:23:37;8.15;;;3.90;;
21675;SDS011;10999;51.332;9.458;2023-05-07T12:26:06;9.05;;;4.43;;
21675;SDS011;10999;51.332;9.458;2023-05-07T12:28:36;10.95;;;4.60;;
21675;SDS011;10999;51.332;9.458;2023-05-07T12:31:07;8.48;;;4.25;;
21675;SDS011;10999;51.332;9.458;2023-05-07T12:33:34;8.35;;;4.22;;
21675;SDS011;10999;51.332;9.458;2023-05-07T12:36:07;9.52;;;4.18;;
21675;SDS011;10999;51.332;9.458;2023-05-07T12:38:35;10.70;;;4.85;;
21675;SDS011;10999;51.332;9.458;2023-05-07T12:41:03;9.23;;;4.63;;
21675;SDS011;10999;51.332;9.458;2023-05-07T12:43:30;8.88;;;4.68;;
21675;SDS011;10999;51.332;9.458;2023-05-07T12:45:58;10.98;;;5.43;;
21675;SDS011;10999;51.332;9.458;2023-05-07T12:48:27;10.57;;;5.15;;
21675;SDS011;10999;51.332;9.458;2023-05-07T12:50:54;10.35;;;4.70;;
21675;SDS011;10999;51.332;9.458;2023-05-07T12:53:26;10.52;;;4.97;;
21675;SDS011;10999;51.332;9.458;2023-05-07T12:55:55;11.25;;;5.32;;
21675;SDS011;10999;51.332;9.458;2023-05-07T12:58:24;10.80;;;5.32;;
21675;SDS011;10999;51.332;9.458;2023-05-07T13:00:56;10.38;;;5.18;;
21675;SDS011;10999;51.332;9.458;2023-05-07T13:03:33;9.48;;;4.85;;
21675;SDS011;10999;51.332;9.458;2023-05-07T13:06:02;11.18;;;4.55;;
21675;SDS011;10999;51.332;9.458;2023-05-07T13:08:34;9.90;;;4.95;;
21675;SDS011;10999;51.332;9.458;2023-05-07T13:11:03;9.10;;;4.55;;
21675;SDS011;10999;51.332;9.458;2023-05-07T13:13:31;8.38;;;4.68;;
21675;SDS011;10999;51.332;9.458;2023-05-07T13:15:58;8.80;;;4.95;;
21675;SDS011;10999;51.332;9.458;2023-05-07T13:18:26;9.35;;;5.07;;
21675;SDS011;10999;51.332;9.458;2023-05-07T13:20:55;9.40;;;4.90;;
21675;SDS011;10999;51.332;9.458;2023-05-07T13:23:22;9.65;;;5.25;;
21675;SDS011;10999;51.332;9.458;2023-05-07T13:25:49;10.45;;;5.50;;
21675;SDS011;10999;51.332;9.458;2023-05-07T13:28:16;12.30;;;6.57;;
21675;SDS011;10999;51.332;9.458;2023-05-07T13:30:43;9.88;;;5.90;;
21675;SDS011;10999;51.332;9.458;2023-05-07T13:33:10;11.55;;;6.28;;
21675;SDS011;10999;51.332;9.458;2023-05-07T13:35:37;12.23;;;5.95;;
21675;SDS011;10999;51.332;9.458;2023-05-07T13:38:04;11.30;;;5.82;;
21675;SDS011;10999;51.332;9.458;2023-05-07T13:40:31;10.38;;;6.20;;
21675;SDS011;10999;51.332;9.458;2023-05-07T13:42:58;10.98;;;5.88;;
21675;SDS011;10999;51.332;9.458;2023-05-07T13:45:26;11.98;;;6.30;;
21675;SDS011;10999;51.332;9.458;2023-05-07T13:47:55;11.52;;;6.68;;
21675;SDS011;10999;51.332;9.458;2023-05-07T13:50:23;12.55;;;7.10;;
21675;SDS011;10999;51.332;9.458;2023-05-07T13:52:50;11.38;;;6.22;;
21675;SDS011;10999;51.332;9.458;2023-05-07T13:55:17;11.40;;;5.43;;
21675;SDS011;10999;51.332;9.458;2023-05-07T13:57:44;10.23;;;5.82;;
21675;SDS011;10999;51.332;9.458;2023-05-07T14:00:12;11.73;;;5.78;;
21675;SDS011;10999;51.332;9.458;2023-05-07T14:02:40;10.30;;;5.90;;
21675;SDS011;10999;51.332;9.458;2023-05-07T14:05:07;11.05;;;5.78;;
21675;SDS011;10999;51.332;9.458;2023-05-07T14:07:35;9.75;;;5.88;;
21675;SDS011;10999;51.332;9.458;2023-05-07T14:10:02;12.30;;;6.30;;
21675;SDS011;10999;51.332;9.458;2023-05-07T14:12:29;10.25;;;5.70;;
21675;SDS011;10999;51.332;9.458;2023-05-07T14:14:57;13.18;;;6.82;;
21675;SDS011;10999;51.332;9.458;2023-05-07T14:17:24;11.15;;;5.88;;
21675;SDS011;10999;51.332;9.458;2023-05-07T14:19:53;10.73;;;5.55;;
21675;SDS011;10999;51.332;9.458;2023-05-07T14:22:21;11.95;;;6.45;;
21675;SDS011;10999;51.332;9.458;2023-05-07T14:24:49;9.77;;;5.70;;
21675;SDS011;10999;51.332;9.458;2023-05-07T14:27:31;11.35;;;6.25;;
21675;SDS011;10999;51.332;9.458;2023-05-07T14:29:58;10.02;;;5.80;;
21675;SDS011;10999;51.332;9.458;2023-05-07T14:32:25;11.77;;;6.35;;
21675;SDS011;10999;51.332;9.458;2023-05-07T14:34:52;11.68;;;6.93;;
21675;SDS011;10999;51.332;9.458;2023-05-07T14:37:18;11.45;;;6.57;;
21675;SDS011;10999;51.332;9.458;2023-05-07T14:39:46;12.13;;;6.82;;
21675;SDS011;10999;51.332;9.458;2023-05-07T14:42:15;11.73;;;6.30;;
21675;SDS011;10999;51.332;9.458;2023-05-07T14:44:42;10.43;;;5.68;;
21675;SDS011;10999;51.332;9.458;2023-05-07T14:47:10;11.30;;;5.97;;
21675;SDS011;10999;51.332;9.458;2023-05-07T14:49:37;12.25;;;6.22;;
21675;SDS011;10999;51.332;9.458;2023-05-07T14:52:04;11.48;;;6.10;;
21675;SDS011;10999;51.332;9.458;2023-05-07T14:54:36;11.15;;;5.82;;
21675;SDS011;10999;51.332;9.458;2023-05-07T14:59:31;10.60;;;5.65;;
21675;SDS011;10999;51.332;9.458;2023-05-07T15:01:58;10.40;;;5.63;;
21675;SDS011;10999;51.332;9.458;2023-05-07T15:04:25;10.43;;;6.13;;
21675;SDS011;10999;51.332;9.458;2023-05-07T15:06:52;10.95;;;6.28;;
21675;SDS011;10999;51.332;9.458;2023-05-07T15:09:20;9.50;;;4.80;;
21675;SDS011;10999;51.332;9.458;2023-05-07T15:11:46;12.13;;;5.78;;